Time;durP1;ratioP1;P1;durP2;ratioP2;P2;SDS_P1;SDS_P2;PMS_P1;PMS_P2;Temp;Humidity;BMP_temperature;BMP_pressure;BME280_temperature;BME280_humidity;BME280_pressure;Samples;Min_cycle;Max_cycle;Signal;HPM_P1;HPM_P2
2021/11/05 00:01:43;;;;;;;5.55;5.10;;;6.00;99.90;;;;;;4990406;28;20196;-83
2021/11/05 00:04:10;;;;;;;4.90;4.50;;;6.00;99.90;;;;;;4988491;28;20200;-82
2021/11/05 00:06:37;;;;;;;4.75;4.35;;;6.00;99.90;;;;;;4994868;28;20204;-83
2021/11/05 00:09:05;;;;;;;5.18;4.72;;;6.10;99.90;;;;;;4988158;28;20205;-84
2021/11/05 00:11:33;;;;;;;5.13;4.63;;;6.10;99.90;;;;;;4992342;28;20610;-83
2021/11/05 00:13:59;;;;;;;5.50;5.05;;;6.10;99.90;;;;;;4989353;28;20649;-85
2021/11/05 00:16:26;;;;;;;5.80;5.22;;;6.10;99.90;;;;;;4985492;28;20207;-83
2021/11/05 00:18:53;;;;;;;4.82;4.40;;;6.00;99.90;;;;;;4991229;28;20204;-82
2021/11/05 00:21:20;;;;;;;6.47;5.88;;;6.10;99.90;;;;;;4997629;28;20176;-79
2021/11/05 00:23:47;;;;;;;5.22;4.72;;;6.00;99.90;;;;;;5005459;28;20207;-80
2021/11/05 00:26:15;;;;;;;6.00;5.40;;;6.00;99.90;;;;;;5004234;28;20207;-80
2021/11/05 00:28:42;;;;;;;6.20;5.65;;;6.00;99.90;;;;;;5005928;28;20200;-79
2021/11/05 00:31:09;;;;;;;4.85;4.45;;;6.00;99.90;;;;;;5021053;28;20233;-79
2021/11/05 00:33:36;;;;;;;6.00;5.43;;;6.00;99.90;;;;;;5023202;28;20239;-82
2021/11/05 00:36:03;;;;;;;6.43;5.82;;;6.10;99.90;;;;;;4999611;28;20206;-83
2021/11/05 00:38:30;;;;;;;5.78;5.28;;;6.00;99.90;;;;;;4998278;28;20215;-82
2021/11/05 00:40:57;;;;;;;6.55;5.85;;;6.00;99.90;;;;;;5014804;28;20202;-83
2021/11/05 00:43:25;;;;;;;5.25;4.85;;;6.00;99.90;;;;;;5017881;28;20227;-81
2021/11/05 00:45:52;;;;;;;5.97;5.53;;;6.10;99.90;;;;;;5001884;28;20200;-80
2021/11/05 00:48:19;;;;;;;6.43;5.93;;;6.10;99.90;;;;;;5018199;28;20233;-82
2021/11/05 00:50:45;;;;;;;5.97;5.47;;;6.00;99.90;;;;;;5003582;28;20241;-83
2021/11/05 00:53:12;;;;;;;6.53;5.43;;;6.00;99.90;;;;;;4997736;28;20231;-83
2021/11/05 00:55:39;;;;;;;6.80;6.10;;;6.20;99.90;;;;;;5011387;28;20204;-83
2021/11/05 00:58:06;;;;;;;4.60;4.20;;;6.20;99.90;;;;;;5017988;28;20210;-82
2021/11/05 01:00:34;;;;;;;5.90;5.40;;;6.30;99.90;;;;;;5016997;28;20199;-83
2021/11/05 01:03:01;;;;;;;6.05;5.55;;;6.40;99.90;;;;;;5017581;28;20249;-83
2021/11/05 01:05:28;;;;;;;6.38;5.72;;;6.30;99.90;;;;;;4999424;28;20681;-83
2021/11/05 01:07:55;;;;;;;6.50;5.85;;;6.40;99.90;;;;;;4998772;28;20215;-83
2021/11/05 01:10:22;;;;;;;6.10;5.60;;;6.40;99.90;;;;;;5012368;28;20202;-83
2021/11/05 01:12:48;;;;;;;6.32;5.72;;;6.40;99.90;;;;;;4998363;28;20604;-83
2021/11/05 01:15:15;;;;;;;5.93;5.53;;;6.40;99.90;;;;;;4998586;28;20214;-83
2021/11/05 01:17:44;;;;;;;5.93;5.43;;;6.50;99.90;;;;;;5000506;28;20211;-83
2021/11/05 01:20:14;;;;;;;5.75;5.25;;;6.50;99.90;;;;;;5017798;28;20215;-83
2021/11/05 01:22:41;;;;;;;6.40;5.22;;;6.40;99.90;;;;;;5013192;28;20223;-82
2021/11/05 01:25:08;;;;;;;4.88;4.47;;;6.40;99.90;;;;;;4998326;28;20696;-83
2021/11/05 01:27:34;;;;;;;5.72;5.13;;;6.30;99.90;;;;;;5000252;28;20196;-82
2021/11/05 01:30:01;;;;;;;5.20;4.80;;;6.30;99.90;;;;;;5017283;28;20691;-83
2021/11/05 01:32:29;;;;;;;5.85;5.35;;;6.30;99.90;;;;;;5015140;28;20602;-83
2021/11/05 01:34:57;;;;;;;5.45;4.95;;;6.30;99.90;;;;;;5004361;28;20203;-83
2021/11/05 01:37:24;;;;;;;5.65;5.15;;;6.30;99.90;;;;;;5017553;28;20210;-83
2021/11/05 01:39:51;;;;;;;6.10;5.50;;;6.20;99.90;;;;;;4998329;28;20207;-81
2021/11/05 01:42:18;;;;;;;5.82;5.43;;;6.20;99.90;;;;;;4998738;28;20232;-83
2021/11/05 01:44:45;;;;;;;6.15;5.63;;;6.20;99.90;;;;;;5020328;28;20215;-82
2021/11/05 01:47:11;;;;;;;4.82;4.43;;;6.30;99.90;;;;;;5013211;28;20592;-83
2021/11/05 01:49:38;;;;;;;6.25;5.63;;;6.20;99.90;;;;;;5001681;28;20204;-82
2021/11/05 01:52:08;;;;;;;5.43;4.93;;;6.10;99.90;;;;;;5007038;28;20234;-82
2021/11/05 01:54:34;;;;;;;6.25;5.65;;;6.10;99.90;;;;;;5021031;28;20213;-83
2021/11/05 01:57:01;;;;;;;6.07;5.05;;;6.20;99.90;;;;;;5015696;28;20210;-82
2021/11/05 01:59:30;;;;;;;5.47;4.95;;;6.20;99.90;;;;;;5011466;28;20669;-83
2021/11/05 02:01:59;;;;;;;5.05;4.55;;;6.30;99.90;;;;;;5017403;28;20203;-83
2021/11/05 02:04:27;;;;;;;5.88;4.82;;;6.20;99.90;;;;;;5001493;28;20212;-82
2021/11/05 02:06:55;;;;;;;5.47;5.07;;;6.10;99.90;;;;;;5003791;28;20208;-82
2021/11/05 02:09:28;;;;;;;5.57;4.93;;;6.10;99.90;;;;;;5020968;28;20213;-81
2021/11/05 02:11:57;;;;;;;5.18;4.78;;;6.00;99.90;;;;;;5008855;28;20220;-82
2021/11/05 02:14:25;;;;;;;5.63;5.15;;;6.10;99.90;;;;;;5001519;28;20708;-82
2021/11/05 02:16:58;;;;;;;5.35;4.30;;;6.20;99.90;;;;;;5011505;28;20206;-81
2021/11/05 02:19:26;;;;;;;5.95;5.35;;;6.30;99.90;;;;;;5021487;28;20210;-81
2021/11/05 02:21:56;;;;;;;6.13;5.57;;;6.50;99.90;;;;;;5010959;28;20211;-81
2021/11/05 02:24:25;;;;;;;5.18;4.68;;;6.40;99.90;;;;;;5014171;28;20206;-81
2021/11/05 02:26:53;;;;;;;5.60;4.57;;;6.30;99.90;;;;;;5011117;28;20207;-80
2021/11/05 02:29:21;;;;;;;6.13;5.53;;;6.20;99.90;;;;;;5000768;28;20208;-80
2021/11/05 02:31:48;;;;;;;6.38;5.78;;;6.10;99.90;;;;;;5007703;28;20222;-82
2021/11/05 02:34:15;;;;;;;5.03;4.63;;;6.20;99.90;;;;;;5019548;28;20211;-81
2021/11/05 02:36:42;;;;;;;6.30;5.70;;;6.20;99.90;;;;;;5003851;28;20211;-81
2021/11/05 02:39:10;;;;;;;5.20;4.80;;;6.30;99.90;;;;;;5000381;28;20223;-81
2021/11/05 02:41:39;;;;;;;5.72;5.22;;;6.30;99.90;;;;;;5016147;28;20687;-81
2021/11/05 02:44:06;;;;;;;4.55;4.25;;;6.30;99.90;;;;;;5018725;28;20214;-81
2021/11/05 02:46:33;;;;;;;6.20;5.60;;;6.40;99.90;;;;;;5005291;28;20211;-80
2021/11/05 02:49:01;;;;;;;6.70;6.00;;;6.40;99.90;;;;;;5016309;28;20203;-81
2021/11/05 02:51:28;;;;;;;6.70;6.20;;;6.30;99.90;;;;;;5017341;28;20222;-83
2021/11/05 02:53:56;;;;;;;5.28;4.88;;;6.20;99.90;;;;;;4998241;28;20716;-83
2021/11/05 02:56:25;;;;;;;6.20;5.65;;;6.30;99.90;;;;;;5011090;28;20583;-83
2021/11/05 02:58:53;;;;;;;6.00;5.45;;;6.40;99.90;;;;;;5014870;28;20204;-83
2021/11/05 03:01:20;;;;;;;5.80;5.30;;;6.40;99.90;;;;;;5000488;28;20200;-83
2021/11/05 03:03:47;;;;;;;7.20;6.50;;;6.40;99.90;;;;;;5006559;28;20231;-83
2021/11/05 03:06:14;;;;;;;6.10;5.60;;;6.30;99.90;;;;;;5016927;28;20207;-83
2021/11/05 03:08:41;;;;;;;6.00;5.22;;;6.40;99.90;;;;;;5000611;28;20212;-80
2021/11/05 03:11:12;;;;;;;6.10;5.50;;;6.40;99.90;;;;;;5013992;28;20235;-82
2021/11/05 03:13:40;;;;;;;5.90;5.40;;;6.40;99.90;;;;;;4998586;28;20250;-80
2021/11/05 03:16:07;;;;;;;5.63;5.05;;;6.50;99.90;;;;;;5018878;28;20203;-82
2021/11/05 03:18:38;;;;;;;5.72;5.15;;;6.60;99.90;;;;;;5018899;28;20229;-81
2021/11/05 03:21:05;;;;;;;5.45;4.95;;;6.60;99.90;;;;;;4999259;28;20199;-82
2021/11/05 03:23:32;;;;;;;5.63;5.22;;;6.70;99.90;;;;;;5008544;28;20231;-81
2021/11/05 03:25:58;;;;;;;5.97;5.38;;;6.70;99.90;;;;;;5018567;28;20687;-82
2021/11/05 03:28:25;;;;;;;5.75;5.25;;;6.80;99.90;;;;;;5009506;28;20601;-81
2021/11/05 03:30:53;;;;;;;7.22;6.60;;;6.80;99.90;;;;;;4998498;28;20208;-81
2021/11/05 03:33:20;;;;;;;5.90;5.40;;;6.90;99.90;;;;;;5005521;28;20229;-81
2021/11/05 03:35:47;;;;;;;5.40;5.00;;;6.90;99.90;;;;;;5006768;28;20211;-82
2021/11/05 03:38:13;;;;;;;6.93;6.28;;;6.90;99.90;;;;;;5006113;28;20199;-82
2021/11/05 03:40:40;;;;;;;5.88;5.38;;;6.80;99.90;;;;;;5018702;28;20210;-82
2021/11/05 03:43:07;;;;;;;5.70;5.20;;;6.90;99.90;;;;;;5013525;28;20216;-82
2021/11/05 03:45:34;;;;;;;6.72;5.68;;;7.00;99.90;;;;;;4998442;28;20208;-82
2021/11/05 03:48:03;;;;;;;6.05;5.55;;;6.80;99.90;;;;;;5011535;28;20203;-82
2021/11/05 03:50:29;;;;;;;5.45;5.05;;;6.70;99.90;;;;;;5017822;28;20211;-82
2021/11/05 03:52:56;;;;;;;5.90;5.50;;;6.60;99.90;;;;;;5005923;28;20693;-81
2021/11/05 03:55:23;;;;;;;5.40;4.97;;;6.80;99.90;;;;;;4998468;28;20211;-81
2021/11/05 03:57:50;;;;;;;5.97;5.40;;;6.50;99.90;;;;;;4997817;28;20236;-82
2021/11/05 04:00:17;;;;;;;7.75;5.68;;;6.60;99.90;;;;;;4997643;28;20689;-79
2021/11/05 04:02:43;;;;;;;5.35;4.85;;;6.60;99.90;;;;;;4997596;28;20267;-82
2021/11/05 04:05:12;;;;;;;6.38;5.88;;;6.70;99.90;;;;;;4998372;28;20212;-82
2021/11/05 04:07:38;;;;;;;6.22;5.70;;;6.60;99.90;;;;;;4998194;28;20215;-80
2021/11/05 04:10:06;;;;;;;6.10;5.50;;;6.60;99.90;;;;;;4998215;28;20207;-82
2021/11/05 04:12:33;;;;;;;6.47;5.90;;;6.50;99.90;;;;;;4997149;28;20232;-81
2021/11/05 04:15:00;;;;;;;6.53;6.03;;;6.50;99.90;;;;;;4997220;28;20203;-83
2021/11/05 04:17:27;;;;;;;6.15;5.65;;;6.50;99.90;;;;;;4997554;28;20207;-84
2021/11/05 04:19:54;;;;;;;6.50;5.18;;;6.60;99.90;;;;;;4997192;28;20211;-83
2021/11/05 04:22:22;;;;;;;6.70;6.00;;;6.40;99.90;;;;;;4997342;28;20232;-84
2021/11/05 04:24:49;;;;;;;6.20;5.70;;;6.30;99.90;;;;;;4997643;28;20798;-83
2021/11/05 04:27:15;;;;;;;5.70;5.10;;;6.30;99.90;;;;;;4996984;28;20557;-83
2021/11/05 04:29:42;;;;;;;6.43;5.82;;;6.20;99.90;;;;;;4996844;28;20211;-83
2021/11/05 04:32:09;;;;;;;8.70;6.32;;;6.30;99.90;;;;;;4995940;28;20247;-83
2021/11/05 04:34:37;;;;;;;5.65;5.15;;;6.20;99.90;;;;;;4996868;28;20239;-81
2021/11/05 04:37:05;;;;;;;7.00;6.30;;;6.20;99.90;;;;;;4996477;28;20204;-83
2021/11/05 04:39:33;;;;;;;5.70;5.20;;;6.30;99.90;;;;;;4996980;28;20594;-82
2021/11/05 04:42:01;;;;;;;6.05;5.45;;;6.30;99.90;;;;;;4996872;28;20270;-82
2021/11/05 04:44:28;;;;;;;5.60;4.90;;;6.40;99.90;;;;;;4996262;28;20262;-83
2021/11/05 04:46:55;;;;;;;4.82;4.32;;;6.40;99.90;;;;;;4996838;28;20212;-79
2021/11/05 04:49:23;;;;;;;4.80;4.50;;;6.60;99.90;;;;;;4994648;28;20207;-80
2021/11/05 04:51:50;;;;;;;5.15;4.75;;;6.40;99.90;;;;;;4994105;28;20649;-80
2021/11/05 04:54:17;;;;;;;4.90;4.47;;;6.40;99.90;;;;;;4994662;28;20281;-78
2021/11/05 04:56:45;;;;;;;6.28;4.95;;;6.50;99.90;;;;;;4993962;28;20211;-80
2021/11/05 04:59:13;;;;;;;4.35;3.95;;;6.40;99.90;;;;;;4994639;28;20203;-80
2021/11/05 05:01:39;;;;;;;4.30;3.90;;;6.40;99.90;;;;;;4994335;28;20685;-79
2021/11/05 05:04:06;;;;;;;5.50;5.00;;;6.50;99.90;;;;;;4994402;28;20580;-79
2021/11/05 05:06:33;;;;;;;5.82;5.32;;;6.30;99.90;;;;;;4994456;28;20577;-80
2021/11/05 05:09:00;;;;;;;5.60;5.20;;;6.30;99.90;;;;;;4994846;28;20222;-80
2021/11/05 05:11:27;;;;;;;7.68;6.97;;;6.30;99.90;;;;;;4994017;28;20669;-79
2021/11/05 05:13:55;;;;;;;5.68;5.18;;;6.20;99.90;;;;;;4994047;28;20223;-79
2021/11/05 05:16:22;;;;;;;5.07;4.57;;;6.30;99.90;;;;;;4994098;28;20680;-80
2021/11/05 05:18:48;;;;;;;4.30;3.90;;;6.40;99.90;;;;;;4998254;28;20673;-80
2021/11/05 05:21:16;;;;;;;5.88;5.28;;;6.30;99.90;;;;;;4998374;28;20218;-79
2021/11/05 05:23:43;;;;;;;6.07;5.50;;;6.20;99.90;;;;;;4998276;28;20741;-79
2021/11/05 05:26:09;;;;;;;6.10;5.60;;;6.20;99.90;;;;;;4998115;28;20216;-79
2021/11/05 05:28:36;;;;;;;5.43;5.00;;;6.00;99.90;;;;;;4998232;28;20210;-78
2021/11/05 05:31:07;;;;;;;6.85;6.22;;;5.90;99.90;;;;;;4998157;28;20577;-79
2021/11/05 05:33:35;;;;;;;7.18;5.68;;;6.10;99.90;;;;;;4997688;28;20684;-79
2021/11/05 05:36:02;;;;;;;8.10;6.50;;;6.10;99.90;;;;;;4997809;28;20302;-79
2021/11/05 05:38:29;;;;;;;6.35;5.82;;;6.10;99.90;;;;;;4997765;28;20219;-79
2021/11/05 05:40:56;;;;;;;5.90;5.20;;;6.00;99.90;;;;;;4998015;28;20212;-79
2021/11/05 05:43:23;;;;;;;7.32;6.60;;;6.10;99.90;;;;;;4998002;28;20274;-78
2021/11/05 05:45:49;;;;;;;6.93;6.28;;;6.10;99.90;;;;;;4997802;28;20212;-79
2021/11/05 05:48:18;;;;;;;5.93;5.43;;;6.10;99.90;;;;;;4998021;28;20211;-79
2021/11/05 05:50:44;;;;;;;6.93;6.22;;;5.90;99.90;;;;;;4997721;28;20688;-79
2021/11/05 05:53:11;;;;;;;6.45;5.85;;;5.80;99.90;;;;;;4997215;28;20258;-79
2021/11/05 05:55:39;;;;;;;7.53;6.82;;;5.90;99.90;;;;;;4998052;28;20207;-79
2021/11/05 05:58:06;;;;;;;7.65;6.95;;;6.10;99.90;;;;;;4998078;28;20298;-79
2021/11/05 06:00:34;;;;;;;7.75;7.05;;;6.10;99.90;;;;;;4997851;28;20235;-79
2021/11/05 06:03:01;;;;;;;7.43;6.32;;;6.10;99.90;;;;;;4997569;28;20223;-80
2021/11/05 06:05:29;;;;;;;7.82;7.05;;;6.20;99.90;;;;;;4997551;28;20218;-79
2021/11/05 06:07:56;;;;;;;6.18;5.68;;;6.00;99.90;;;;;;4998151;28;20208;-79
2021/11/05 06:10:23;;;;;;;8.45;7.00;;;6.00;99.90;;;;;;4997961;28;20234;-79
2021/11/05 06:12:50;;;;;;;7.70;7.05;;;6.00;99.90;;;;;;4996796;28;20246;-79
2021/11/05 06:15:16;;;;;;;6.95;6.25;;;6.10;99.90;;;;;;4997099;28;20204;-80
2021/11/05 06:17:44;;;;;;;8.45;7.75;;;6.20;99.90;;;;;;4997464;28;20211;-79
2021/11/05 06:20:11;;;;;;;7.82;7.13;;;6.20;99.90;;;;;;4996988;28;20211;-78
2021/11/05 06:22:39;;;;;;;7.65;6.85;;;6.20;99.90;;;;;;4996946;28;20236;-79
2021/11/05 06:25:07;;;;;;;6.80;6.10;;;6.30;99.90;;;;;;4997365;28;20300;-80
2021/11/05 06:27:33;;;;;;;7.25;6.65;;;6.30;99.90;;;;;;5000845;28;20208;-80
2021/11/05 06:30:00;;;;;;;8.63;6.65;;;6.30;99.90;;;;;;5014127;28;20209;-80
2021/11/05 06:32:27;;;;;;;6.05;5.43;;;6.30;99.90;;;;;;5013389;28;20236;-80
2021/11/05 06:34:54;;;;;;;8.02;5.75;;;6.30;99.90;;;;;;4998144;28;20231;-80
2021/11/05 06:37:20;;;;;;;8.55;7.47;;;6.50;99.90;;;;;;4997326;28;20230;-80
2021/11/05 06:39:49;;;;;;;7.88;6.78;;;6.50;99.90;;;;;;4996880;28;20211;-80
2021/11/05 06:42:20;;;;;;;7.32;6.70;;;6.50;99.90;;;;;;4996756;28;20224;-80
2021/11/05 06:44:47;;;;;;;7.88;7.13;;;6.50;99.90;;;;;;4996833;28;20570;-78
2021/11/05 06:47:14;;;;;;;7.10;6.40;;;6.40;99.90;;;;;;4996379;28;20214;-80
2021/11/05 06:49:43;;;;;;;6.45;5.85;;;6.60;99.90;;;;;;4996663;28;20592;-80
2021/11/05 06:52:10;;;;;;;7.18;6.53;;;6.60;99.90;;;;;;4996273;28;20231;-80
2021/11/05 06:54:38;;;;;;;7.50;6.28;;;6.60;99.90;;;;;;4996469;28;20569;-79
2021/11/05 06:57:07;;;;;;;7.60;6.53;;;6.60;99.90;;;;;;4996909;28;20204;-79
2021/11/05 06:59:34;;;;;;;6.57;5.97;;;6.70;99.90;;;;;;4996460;28;20214;-79
2021/11/05 07:02:01;;;;;;;7.60;6.90;;;6.60;99.90;;;;;;4996023;28;20236;-79
2021/11/05 07:04:28;;;;;;;8.32;7.07;;;6.60;99.90;;;;;;4996856;28;20215;-80
2021/11/05 07:06:55;;;;;;;8.38;7.35;;;6.70;99.90;;;;;;4996483;28;20593;-80
2021/11/05 07:09:23;;;;;;;6.93;6.22;;;6.70;99.90;;;;;;4995983;28;20208;-80
2021/11/05 07:11:50;;;;;;;8.27;7.35;;;6.60;99.90;;;;;;4996064;28;20302;-80
2021/11/05 07:14:18;;;;;;;7.07;6.38;;;6.60;99.90;;;;;;4995962;28;20238;-80
2021/11/05 07:16:46;;;;;;;7.55;6.90;;;6.50;99.90;;;;;;4995971;28;20203;-80
2021/11/05 07:19:15;;;;;;;6.60;6.00;;;6.40;99.90;;;;;;4996703;28;20214;-79
2021/11/05 07:21:42;;;;;;;7.20;6.47;;;6.40;99.90;;;;;;4995850;28;20208;-80
2021/11/05 07:24:09;;;;;;;7.53;6.55;;;6.40;99.90;;;;;;4994874;28;20204;-80
2021/11/05 07:26:39;;;;;;;7.65;6.30;;;6.50;99.90;;;;;;4995232;28;20208;-78
2021/11/05 07:29:08;;;;;;;8.93;5.80;;;6.50;99.90;;;;;;4996137;28;20212;-80
2021/11/05 07:31:37;;;;;;;7.65;5.80;;;6.60;99.90;;;;;;4995744;28;20254;-79
2021/11/05 07:34:03;;;;;;;6.72;6.05;;;6.60;99.90;;;;;;4995964;28;20235;-78
2021/11/05 07:36:30;;;;;;;6.97;6.38;;;6.60;99.90;;;;;;4995758;28;20208;-78
2021/11/05 07:38:57;;;;;;;8.07;5.90;;;6.60;99.90;;;;;;4995507;28;20207;-79
2021/11/05 07:41:25;;;;;;;6.65;6.13;;;6.80;99.90;;;;;;5015655;28;20208;-79
2021/11/05 07:43:53;;;;;;;9.10;5.22;;;6.90;99.90;;;;;;5016967;28;20227;-79
2021/11/05 07:46:20;;;;;;;6.13;5.53;;;6.90;99.90;;;;;;5016355;28;20198;-78
2021/11/05 07:48:48;;;;;;;5.40;4.90;;;6.90;99.90;;;;;;5017071;28;20217;-78
2021/11/05 07:51:15;;;;;;;6.13;5.63;;;6.90;99.90;;;;;;5011495;28;20212;-79
2021/11/05 07:53:42;;;;;;;6.90;6.22;;;6.90;99.90;;;;;;4993635;28;20589;-79
2021/11/05 07:56:09;;;;;;;5.43;4.93;;;7.00;99.90;;;;;;4993785;28;20692;-79
2021/11/05 07:58:35;;;;;;;6.03;5.47;;;7.00;99.90;;;;;;4993824;28;20203;-78
2021/11/05 08:01:02;;;;;;;4.45;4.05;;;7.00;99.90;;;;;;4993936;28;20668;-78
2021/11/05 08:03:29;;;;;;;4.50;4.10;;;7.00;99.90;;;;;;4993618;28;20231;-79
2021/11/05 08:05:57;;;;;;;4.57;4.00;;;7.00;99.90;;;;;;4993730;28;20215;-80
2021/11/05 08:08:24;;;;;;;4.75;4.22;;;6.90;99.90;;;;;;4993463;28;20212;-80
2021/11/05 08:10:51;;;;;;;3.97;3.45;;;6.80;99.90;;;;;;4993552;28;20215;-80
2021/11/05 08:13:19;;;;;;;3.45;3.25;;;6.90;99.90;;;;;;4993233;28;20231;-80
2021/11/05 08:15:46;;;;;;;5.80;5.18;;;7.00;99.90;;;;;;4993523;28;20673;-80
2021/11/05 08:18:13;;;;;;;2.90;2.70;;;6.90;99.90;;;;;;4993681;28;20215;-79
2021/11/05 08:20:43;;;;;;;3.25;2.95;;;6.90;99.90;;;;;;4995382;28;20211;-82
2021/11/05 08:23:11;;;;;;;3.00;2.80;;;6.90;99.90;;;;;;4995603;28;20227;-82
2021/11/05 08:25:38;;;;;;;2.92;2.72;;;7.00;99.90;;;;;;4996942;28;20218;-82
2021/11/05 08:28:05;;;;;;;2.70;2.50;;;6.90;99.90;;;;;;4998012;28;20219;-82
2021/11/05 08:30:32;;;;;;;3.03;2.72;;;7.10;99.90;;;;;;4997585;28;20213;-83
2021/11/05 08:33:00;;;;;;;3.03;2.80;;;7.10;99.90;;;;;;4996681;28;20243;-83
2021/11/05 08:35:29;;;;;;;2.80;2.50;;;7.10;99.90;;;;;;4997851;28;20207;-81
2021/11/05 08:37:56;;;;;;;2.95;2.75;;;7.20;99.90;;;;;;4998298;28;20207;-83
2021/11/05 08:40:25;;;;;;;2.05;1.92;;;7.20;99.90;;;;;;4997770;28;20712;-83
2021/11/05 08:42:52;;;;;;;2.47;2.22;;;7.30;99.90;;;;;;4997274;28;20228;-82
2021/11/05 08:45:20;;;;;;;2.10;2.00;;;7.40;99.90;;;;;;4997151;28;20688;-82
2021/11/05 08:47:46;;;;;;;5.93;2.95;;;7.50;99.90;;;;;;4998097;28;20219;-81
2021/11/05 08:50:15;;;;;;;2.28;2.03;;;7.70;99.90;;;;;;4998569;28;20215;-83
2021/11/05 08:52:42;;;;;;;2.72;2.38;;;7.80;99.90;;;;;;4997548;28;20232;-82
2021/11/05 08:55:10;;;;;;;2.33;2.13;;;7.80;99.90;;;;;;4997709;28;20218;-83
2021/11/05 08:57:39;;;;;;;3.17;2.30;;;7.70;99.90;;;;;;4999666;28;20591;-83
2021/11/05 09:00:09;;;;;;;2.22;2.10;;;7.70;99.90;;;;;;4997912;28;20211;-82
2021/11/05 09:02:36;;;;;;;5.53;2.70;;;7.60;99.90;;;;;;4997845;28;20231;-81
2021/11/05 09:05:04;;;;;;;3.00;2.80;;;7.60;99.90;;;;;;4998754;28;20207;-83
2021/11/05 09:07:31;;;;;;;1.98;1.83;;;7.60;99.90;;;;;;4997500;28;20211;-81
2021/11/05 09:09:57;;;;;;;2.60;2.45;;;7.60;99.90;;;;;;4996648;28;20208;-81
2021/11/05 09:12:24;;;;;;;6.63;3.55;;;7.60;99.90;;;;;;4996111;28;20579;-82
2021/11/05 09:14:52;;;;;;;1.65;1.55;;;7.60;99.90;;;;;;4997065;28;20244;-82
2021/11/05 09:17:19;;;;;;;1.63;1.52;;;7.60;99.90;;;;;;4997275;28;20212;-82
2021/11/05 09:19:46;;;;;;;1.48;1.38;;;7.50;99.90;;;;;;4997382;28;20583;-81
2021/11/05 09:22:13;;;;;;;1.73;1.63;;;7.50;99.90;;;;;;4996947;28;20243;-82
2021/11/05 09:24:40;;;;;;;2.35;2.25;;;7.70;99.90;;;;;;4997289;28;20230;-82
2021/11/05 09:27:07;;;;;;;2.95;1.50;;;7.80;99.90;;;;;;4997295;28;20204;-81
2021/11/05 09:29:34;;;;;;;1.80;1.70;;;8.00;99.90;;;;;;4997055;28;20219;-81
2021/11/05 09:32:02;;;;;;;1.80;1.50;;;8.20;99.90;;;;;;4996548;28;20240;-81
2021/11/05 09:34:31;;;;;;;4.50;2.38;;;8.20;99.90;;;;;;4996379;28;20235;-81
2021/11/05 09:36:59;;;;;;;1.90;1.80;;;8.30;99.90;;;;;;4996441;28;20294;-82
2021/11/05 09:39:26;;;;;;;1.73;1.63;;;8.20;99.90;;;;;;4995927;28;20208;-82
2021/11/05 09:41:53;;;;;;;1.83;1.73;;;8.20;99.90;;;;;;4995860;28;20291;-81
2021/11/05 09:44:21;;;;;;;2.22;1.95;;;8.20;99.90;;;;;;4996431;28;20666;-83
2021/11/05 09:46:48;;;;;;;2.70;2.50;;;8.30;99.90;;;;;;4996032;28;20215;-82
2021/11/05 09:49:16;;;;;;;4.05;3.25;;;8.40;99.90;;;;;;5005320;28;20214;-83
2021/11/05 09:51:43;;;;;;;2.40;2.20;;;8.40;99.90;;;;;;4995300;28;20709;-81
2021/11/05 09:54:11;;;;;;;3.10;2.83;;;8.60;99.90;;;;;;4996354;28;20234;-82
2021/11/05 09:56:38;;;;;;;4.10;3.25;;;8.70;99.90;;;;;;4996253;28;20339;-82
2021/11/05 09:59:07;;;;;;;2.22;2.10;;;8.80;99.90;;;;;;5007448;28;20214;-80
2021/11/05 10:01:34;;;;;;;3.53;2.95;;;8.90;99.90;;;;;;5011472;28;20228;-83
2021/11/05 10:04:01;;;;;;;2.53;2.33;;;8.60;99.90;;;;;;5002678;28;20227;-84
2021/11/05 10:06:29;;;;;;;2.60;2.40;;;8.40;99.90;;;;;;5001187;28;20208;-84
2021/11/05 10:08:56;;;;;;;2.20;2.10;;;8.40;99.90;;;;;;5000128;28;20211;-84
2021/11/05 10:11:26;;;;;;;2.45;2.25;;;8.30;99.90;;;;;;4999913;28;20232;-85
2021/11/05 10:13:55;;;;;;;2.58;2.38;;;8.40;99.90;;;;;;4999650;28;20490;-85
2021/11/05 10:16:24;;;;;;;2.33;2.10;;;8.40;99.90;;;;;;4999590;28;20706;-85
2021/11/05 10:19:00;;;;;;;3.28;2.95;;;8.70;99.90;;;;;;5000151;28;20217;-85
2021/11/05 10:21:39;;;;;;;5.43;2.95;;;8.80;99.90;;;;;;5000373;28;20587;-85
2021/11/05 10:24:09;;;;;;;2.50;2.30;;;9.00;99.90;;;;;;4999525;28;20294;-82
2021/11/05 10:26:37;;;;;;;2.83;2.63;;;9.30;99.90;;;;;;4999881;28;20213;-84
2021/11/05 10:29:06;;;;;;;2.35;2.25;;;9.60;99.90;;;;;;5004139;28;20213;-84
2021/11/05 10:31:34;;;;;;;2.45;2.35;;;9.70;99.90;;;;;;5004375;28;20212;-84
2021/11/05 10:34:01;;;;;;;5.18;2.60;;;9.70;99.90;;;;;;5004589;28;20718;-83
2021/11/05 10:36:31;;;;;;;2.70;2.50;;;9.90;99.90;;;;;;5004498;28;20218;-84
2021/11/05 10:39:00;;;;;;;2.20;2.10;;;9.90;99.90;;;;;;5005060;28;20718;-85
2021/11/05 10:41:28;;;;;;;4.32;2.60;;;9.90;99.90;;;;;;5003817;28;20209;-86
2021/11/05 10:43:57;;;;;;;2.53;2.33;;;9.90;99.90;;;;;;5003474;28;20235;-84
2021/11/05 10:46:30;;;;;;;2.53;2.35;;;9.60;99.90;;;;;;4991860;28;20202;-84
2021/11/05 10:48:59;;;;;;;2.67;2.45;;;9.30;99.90;;;;;;4986064;28;20204;-81
2021/11/05 10:51:30;;;;;;;2.83;2.63;;;9.10;99.90;;;;;;4986274;28;20211;-81
2021/11/05 10:53:58;;;;;;;4.25;2.83;;;9.20;99.90;;;;;;4987414;28;20222;-81
2021/11/05 10:56:29;;;;;;;2.92;2.72;;;9.10;99.90;;;;;;4986919;28;20203;-81
2021/11/05 10:58:58;;;;;;;2.40;2.20;;;9.10;99.90;;;;;;4990003;28;20205;-80
2021/11/05 11:01:29;;;;;;;3.10;2.90;;;9.20;99.90;;;;;;4976708;28;20212;-81
2021/11/05 11:03:59;;;;;;;5.10;4.70;;;9.20;99.90;;;;;;4980791;28;20221;-81
2021/11/05 11:06:29;;;;;;;4.57;4.18;;;9.50;99.90;;;;;;4984760;28;20209;-81
2021/11/05 11:08:59;;;;;;;4.22;3.85;;;9.60;99.90;;;;;;4987538;28;20586;-82
2021/11/05 11:11:27;;;;;;;3.60;3.30;;;9.70;99.90;;;;;;4987089;28;20205;-80
2021/11/05 11:13:57;;;;;;;4.10;3.80;;;9.80;99.90;;;;;;4982121;28;20226;-81
2021/11/05 11:22:44;;;;;;;4.10;3.70;;;10.20;99.90;;;;;;4988801;28;20754;-85
2021/11/05 11:25:12;;;;;;;3.97;3.67;;;10.20;99.90;;;;;;4985250;28;20205;-85
2021/11/05 11:27:39;;;;;;;8.30;5.30;;;10.30;99.90;;;;;;4983045;28;20207;-84
2021/11/05 11:30:06;;;;;;;5.40;4.43;;;10.30;99.90;;;;;;4985253;28;20824;-85
2021/11/05 11:32:34;;;;;;;4.55;4.15;;;10.20;99.90;;;;;;4978327;28;20523;-85
2021/11/05 11:35:01;;;;;;;6.43;5.82;;;10.10;99.90;;;;;;4978551;28;20229;-85
2021/11/05 11:37:30;;;;;;;5.75;5.28;;;9.80;99.90;;;;;;4976458;28;20216;-86
2021/11/05 11:39:56;;;;;;;4.93;4.45;;;9.70;99.90;;;;;;4977118;28;20694;-86
2021/11/05 11:42:24;;;;;;;6.53;5.93;;;9.80;99.90;;;;;;4977277;28;20235;-84
2021/11/05 11:44:52;;;;;;;5.40;4.90;;;9.50;99.90;;;;;;4981409;28;20573;-84
2021/11/05 11:47:19;;;;;;;6.57;5.90;;;9.30;99.90;;;;;;4976399;28;20204;-84
2021/11/05 11:49:47;;;;;;;5.97;5.38;;;9.10;99.90;;;;;;4989900;28;20206;-85
2021/11/05 11:52:32;;;;;;;5.97;5.20;;;9.00;99.90;;;;;;4984137;28;20224;-84
2021/11/05 11:55:13;;;;;;;5.70;4.75;;;9.00;99.90;;;;;;4978442;28;20218;-84
2021/11/05 11:57:42;;;;;;;6.45;5.38;;;9.10;99.90;;;;;;4980733;28;20216;-83
2021/11/05 12:00:11;;;;;;;5.82;5.32;;;9.00;99.90;;;;;;4984559;28;20209;-82
2021/11/05 12:02:40;;;;;;;6.72;6.03;;;9.10;99.90;;;;;;4989806;28;20224;-83
2021/11/05 12:05:38;;;;;;;7.72;6.28;;;9.20;99.90;;;;;;4979814;28;20198;-83
2021/11/05 12:08:17;;;;;;;6.13;5.63;;;9.30;99.90;;;;;;4983516;28;20204;-82
2021/11/05 12:11:23;;;;;;;5.70;5.15;;;9.40;99.90;;;;;;4993284;28;20209;-83
2021/11/05 12:14:07;;;;;;;6.75;5.88;;;9.60;99.90;;;;;;4983228;28;22200;-83
2021/11/05 12:17:01;;;;;;;6.72;5.90;;;9.50;99.90;;;;;;4981653;28;20201;-84
2021/11/05 12:19:35;;;;;;;6.55;5.85;;;9.40;99.90;;;;;;4997154;28;20213;-82
2021/11/05 12:22:20;;;;;;;4.78;4.13;;;9.50;99.90;;;;;;4989307;28;20615;-84
2021/11/05 12:28:18;;;;;;;6.25;5.65;;;9.70;99.90;;;;;;4997402;28;20217;-84
2021/11/05 12:31:30;;;;;;;5.40;4.45;;;9.80;99.90;;;;;;4982487;28;20207;-85
2021/11/05 12:34:26;;;;;;;5.20;4.70;;;9.80;99.90;;;;;;4964223;28;20301;-82
2021/11/05 12:36:54;;;;;;;3.77;3.47;;;10.10;99.90;;;;;;4982654;28;20557;-83
2021/11/05 12:39:29;;;;;;;4.50;4.20;;;10.20;99.90;;;;;;4990771;28;20456;-85
2021/11/05 12:44:58;;;;;;;4.40;3.97;;;10.40;99.90;;;;;;5000550;28;20227;-83
2021/11/05 12:50:35;;;;;;;4.20;3.83;;;11.30;99.90;;;;;;4982928;28;20513;-85
2021/11/05 12:53:04;;;;;;;5.03;4.53;;;11.70;99.90;;;;;;4995887;28;20470;-82
2021/11/05 12:55:34;;;;;;;5.47;4.97;;;11.60;99.90;;;;;;5000428;28;20486;-81
2021/11/05 12:58:24;;;;;;;4.43;4.03;;;11.30;99.90;;;;;;4988545;28;21085;-81
2021/11/05 13:00:56;;;;;;;5.37;4.90;;;11.30;99.90;;;;;;4993350;28;20455;-84
2021/11/05 13:06:09;;;;;;;5.07;4.57;;;11.60;99.90;;;;;;4992242;28;20525;-83
2021/11/05 13:08:38;;;;;;;3.77;3.57;;;11.60;99.90;;;;;;4990796;28;20658;-83
2021/11/05 13:14:33;;;;;;;3.17;2.93;;;11.40;99.70;;;;;;4989838;28;20486;-84
2021/11/05 13:21:07;;;;;;;4.70;3.67;;;12.30;99.20;;;;;;4980104;28;20464;-82
2021/11/05 13:23:47;;;;;;;4.27;3.87;;;12.20;98.90;;;;;;4994733;28;20577;-82
2021/11/05 13:26:24;;;;;;;4.30;4.00;;;12.30;98.50;;;;;;4997650;28;20548;-83
2021/11/05 13:28:51;;;;;;;4.40;4.10;;;12.30;98.40;;;;;;4995662;28;20472;-82